sensor_id;sensor_type;location;lat;lon;timestamp;pressure;altitude;pressure_sealevel;temperature;humidity
57801;BME280;43627;42.728;23.256;2023-01-28T00:01:17;94332.81;;;-0.76;100.00
57801;BME280;43627;42.728;23.256;2023-01-28T00:03:48;94253.72;;;-1.31;100.00
57801;BME280;43627;42.728;23.256;2023-01-28T00:06:15;94347.69;;;-0.72;100.00
57801;BME280;43627;42.728;23.256;2023-01-28T00:08:43;94356.91;;;-0.76;100.00
57801;BME280;43627;42.728;23.256;2023-01-28T00:11:11;94364.56;;;-0.75;100.00
57801;BME280;43627;42.728;23.256;2023-01-28T00:13:39;94351.28;;;-0.82;100.00
57801;BME280;43627;42.728;23.256;2023-01-28T00:16:06;94368.59;;;-0.63;100.00
57801;BME280;43627;42.728;23.256;2023-01-28T00:18:37;94353.03;;;-0.72;100.00
57801;BME280;43627;42.728;23.256;2023-01-28T00:21:09;94378.22;;;-0.66;100.00
57801;BME280;43627;42.728;23.256;2023-01-28T00:23:36;94378.91;;;-0.62;100.00
57801;BME280;43627;42.728;23.256;2023-01-28T00:26:09;94374.13;;;-0.74;100.00
57801;BME280;43627;42.728;23.256;2023-01-28T00:28:36;94371.19;;;-0.87;100.00
57801;BME280;43627;42.728;23.256;2023-01-28T00:31:12;94383.16;;;-0.64;100.00
57801;BME280;43627;42.728;23.256;2023-01-28T00:33:39;94384.63;;;-0.60;100.00
57801;BME280;43627;42.728;23.256;2023-01-28T00:36:06;94383.41;;;-0.55;100.00
57801;BME280;43627;42.728;23.256;2023-01-28T00:38:33;94379.72;;;-0.65;100.00
57801;BME280;43627;42.728;23.256;2023-01-28T00:41:27;94394.47;;;-0.53;100.00
57801;BME280;43627;42.728;23.256;2023-01-28T00:43:54;94392.22;;;-0.54;100.00
57801;BME280;43627;42.728;23.256;2023-01-28T00:46:22;94391.53;;;-0.62;100.00
57801;BME280;43627;42.728;23.256;2023-01-28T00:48:51;94391.13;;;-0.61;100.00
57801;BME280;43627;42.728;23.256;2023-01-28T00:51:18;94372.97;;;-0.76;100.00
57801;BME280;43627;42.728;23.256;2023-01-28T00:53:46;94388.41;;;-0.84;100.00
57801;BME280;43627;42.728;23.256;2023-01-28T00:56:15;94387.59;;;-0.81;100.00
57801;BME280;43627;42.728;23.256;2023-01-28T00:58:42;94389.09;;;-0.80;100.00
57801;BME280;43627;42.728;23.256;2023-01-28T01:01:12;94378.47;;;-0.87;100.00
57801;BME280;43627;42.728;23.256;2023-01-28T01:03:40;94392.84;;;-0.74;100.00
57801;BME280;43627;42.728;23.256;2023-01-28T01:06:07;94393.59;;;-0.73;100.00
57801;BME280;43627;42.728;23.256;2023-01-28T01:08:35;94390.69;;;-0.86;100.00
57801;BME280;43627;42.728;23.256;2023-01-28T01:11:06;94390.19;;;-0.74;100.00
57801;BME280;43627;42.728;23.256;2023-01-28T01:13:33;94375.16;;;-0.95;100.00
57801;BME280;43627;42.728;23.256;2023-01-28T01:16:07;94382.31;;;-0.88;100.00
57801;BME280;43627;42.728;23.256;2023-01-28T01:18:35;94396.78;;;-0.82;100.00
57801;BME280;43627;42.728;23.256;2023-01-28T01:21:10;94390.25;;;-0.81;100.00
57801;BME280;43627;42.728;23.256;2023-01-28T01:23:37;94403.72;;;-0.88;100.00
57801;BME280;43627;42.728;23.256;2023-01-28T01:26:05;94403.78;;;-0.92;100.00
57801;BME280;43627;42.728;23.256;2023-01-28T01:28:32;94386.28;;;-1.00;100.00
57801;BME280;43627;42.728;23.256;2023-01-28T01:31:05;94388.53;;;-0.95;100.00
57801;BME280;43627;42.728;23.256;2023-01-28T01:33:33;94386.97;;;-0.92;100.00
57801;BME280;43627;42.728;23.256;2023-01-28T01:36:00;94410.91;;;-0.81;100.00
57801;BME280;43627;42.728;23.256;2023-01-28T01:38:28;94415.59;;;-0.89;100.00
57801;BME280;43627;42.728;23.256;2023-01-28T01:40:56;94391.78;;;-1.10;100.00
57801;BME280;43627;42.728;23.256;2023-01-28T01:43:24;94406.41;;;-0.88;100.00
57801;BME280;43627;42.728;23.256;2023-01-28T01:45:56;94412.84;;;-0.86;100.00
57801;BME280;43627;42.728;23.256;2023-01-28T01:48:28;94403.81;;;-0.95;100.00
57801;BME280;43627;42.728;23.256;2023-01-28T01:51:01;94344.22;;;-1.30;100.00
57801;BME280;43627;42.728;23.256;2023-01-28T01:53:30;94388.56;;;-0.98;100.00
57801;BME280;43627;42.728;23.256;2023-01-28T01:56:02;94403.91;;;-1.02;100.00
57801;BME280;43627;42.728;23.256;2023-01-28T01:58:30;94411.41;;;-0.90;100.00
57801;BME280;43627;42.728;23.256;2023-01-28T02:00:59;94402.41;;;-1.03;100.00
57801;BME280;43627;42.728;23.256;2023-01-28T02:03:32;94410.78;;;-1.01;100.00
57801;BME280;43627;42.728;23.256;2023-01-28T02:06:03;94416.06;;;-0.94;100.00
57801;BME280;43627;42.728;23.256;2023-01-28T02:08:30;94419.06;;;-0.92;100.00
57801;BME280;43627;42.728;23.256;2023-01-28T02:11:02;94396.59;;;-0.98;100.00
57801;BME280;43627;42.728;23.256;2023-01-28T02:13:33;94398.44;;;-0.95;100.00
57801;BME280;43627;42.728;23.256;2023-01-28T02:16:02;94413.28;;;-0.87;100.00
57801;BME280;43627;42.728;23.256;2023-01-28T02:18:31;94428.16;;;-0.86;100.00
57801;BME280;43627;42.728;23.256;2023-01-28T02:37:33;94427.09;;;-0.92;100.00
57801;BME280;43627;42.728;23.256;2023-01-28T02:40:15;94399.41;;;-1.09;100.00
57801;BME280;43627;42.728;23.256;2023-01-28T02:42:45;94410.72;;;-0.98;100.00
57801;BME280;43627;42.728;23.256;2023-01-28T02:45:20;94417.97;;;-0.95;100.00
57801;BME280;43627;42.728;23.256;2023-01-28T02:47:47;94379.75;;;-1.29;100.00
57801;BME280;43627;42.728;23.256;2023-01-28T02:50:45;94415.72;;;-1.00;100.00
57801;BME280;43627;42.728;23.256;2023-01-28T02:59:18;94430.63;;;-0.99;100.00
57801;BME280;43627;42.728;23.256;2023-01-28T03:02:07;94439.47;;;-1.05;100.00
57801;BME280;43627;42.728;23.256;2023-01-28T03:05:06;94436.03;;;-1.06;100.00
57801;BME280;43627;42.728;23.256;2023-01-28T03:07:37;94419.00;;;-1.19;100.00
57801;BME280;43627;42.728;23.256;2023-01-28T03:10:08;94426.56;;;-1.10;100.00
57801;BME280;43627;42.728;23.256;2023-01-28T03:12:40;94441.84;;;-1.11;100.00
57801;BME280;43627;42.728;23.256;2023-01-28T03:15:28;94437.97;;;-1.06;100.00
57801;BME280;43627;42.728;23.256;2023-01-28T03:21:21;94429.34;;;-1.21;100.00
57801;BME280;43627;42.728;23.256;2023-01-28T03:24:11;94444.22;;;-1.20;100.00
57801;BME280;43627;42.728;23.256;2023-01-28T03:27:25;94427.56;;;-1.35;100.00
57801;BME280;43627;42.728;23.256;2023-01-28T03:30:35;94443.13;;;-1.23;100.00
57801;BME280;43627;42.728;23.256;2023-01-28T03:33:18;94443.19;;;-1.30;100.00
57801;BME280;43627;42.728;23.256;2023-01-28T03:36:05;94435.06;;;-1.19;100.00
57801;BME280;43627;42.728;23.256;2023-01-28T03:38:50;94445.34;;;-1.18;100.00
57801;BME280;43627;42.728;23.256;2023-01-28T03:41:23;94432.09;;;-1.28;100.00
57801;BME280;43627;42.728;23.256;2023-01-28T03:43:51;94453.81;;;-1.23;100.00
57801;BME280;43627;42.728;23.256;2023-01-28T03:46:19;94448.53;;;-1.30;100.00
57801;BME280;43627;42.728;23.256;2023-01-28T03:48:45;94404.47;;;-1.56;100.00
57801;BME280;43627;42.728;23.256;2023-01-28T03:51:12;94452.09;;;-1.40;100.00
57801;BME280;43627;42.728;23.256;2023-01-28T03:53:39;94456.59;;;-1.33;100.00
57801;BME280;43627;42.728;23.256;2023-01-28T03:56:06;94455.81;;;-1.34;100.00
57801;BME280;43627;42.728;23.256;2023-01-28T03:58:34;94460.34;;;-1.27;100.00
57801;BME280;43627;42.728;23.256;2023-01-28T04:01:22;94474.13;;;-1.29;100.00
57801;BME280;43627;42.728;23.256;2023-01-28T04:03:48;94465.00;;;-1.31;100.00
57801;BME280;43627;42.728;23.256;2023-01-28T04:06:15;94454.75;;;-1.40;100.00
57801;BME280;43627;42.728;23.256;2023-01-28T04:08:42;94466.91;;;-1.32;100.00
57801;BME280;43627;42.728;23.256;2023-01-28T04:11:14;94461.56;;;-1.32;100.00
57801;BME280;43627;42.728;23.256;2023-01-28T04:13:41;94474.09;;;-1.25;100.00
57801;BME280;43627;42.728;23.256;2023-01-28T04:16:09;94474.19;;;-1.36;100.00
57801;BME280;43627;42.728;23.256;2023-01-28T04:18:36;94448.47;;;-1.60;100.00
57801;BME280;43627;42.728;23.256;2023-01-28T04:21:03;94471.22;;;-1.45;100.00
57801;BME280;43627;42.728;23.256;2023-01-28T04:23:30;94476.88;;;-1.36;100.00
57801;BME280;43627;42.728;23.256;2023-01-28T04:25:56;94486.00;;;-1.33;100.00
57801;BME280;43627;42.728;23.256;2023-01-28T04:28:23;94489.13;;;-1.38;100.00
57801;BME280;43627;42.728;23.256;2023-01-28T04:30:51;94485.34;;;-1.41;100.00
57801;BME280;43627;42.728;23.256;2023-01-28T04:33:18;94473.88;;;-1.41;100.00
57801;BME280;43627;42.728;23.256;2023-01-28T04:35:44;94483.72;;;-1.35;100.00
57801;BME280;43627;42.728;23.256;2023-01-28T04:38:11;94484.09;;;-1.33;100.00
57801;BME280;43627;42.728;23.256;2023-01-28T04:40:37;94490.28;;;-1.39;100.00
57801;BME280;43627;42.728;23.256;2023-01-28T04:43:04;94492.59;;;-1.45;100.00
57801;BME280;43627;42.728;23.256;2023-01-28T04:45:31;94479.97;;;-1.41;100.00
57801;BME280;43627;42.728;23.256;2023-01-28T04:47:57;94495.59;;;-1.36;100.00
57801;BME280;43627;42.728;23.256;2023-01-28T04:50:25;94490.38;;;-1.50;100.00
57801;BME280;43627;42.728;23.256;2023-01-28T04:52:52;94507.09;;;-1.39;100.00
57801;BME280;43627;42.728;23.256;2023-01-28T04:55:18;94493.03;;;-1.50;100.00
57801;BME280;43627;42.728;23.256;2023-01-28T04:57:45;94474.75;;;-1.55;100.00
57801;BME280;43627;42.728;23.256;2023-01-28T05:00:13;94516.22;;;-1.36;100.00
57801;BME280;43627;42.728;23.256;2023-01-28T05:02:40;94495.72;;;-1.50;100.00
57801;BME280;43627;42.728;23.256;2023-01-28T05:05:07;94507.94;;;-1.49;100.00
57801;BME280;43627;42.728;23.256;2023-01-28T05:07:36;94479.06;;;-1.68;100.00
57801;BME280;43627;42.728;23.256;2023-01-28T05:10:03;94507.09;;;-1.42;100.00
57801;BME280;43627;42.728;23.256;2023-01-28T05:12:31;94497.69;;;-1.61;100.00
57801;BME280;43627;42.728;23.256;2023-01-28T05:14:59;94470.06;;;-1.89;100.00
57801;BME280;43627;42.728;23.256;2023-01-28T05:17:27;94531.19;;;-1.46;100.00
57801;BME280;43627;42.728;23.256;2023-01-28T05:19:54;94516.81;;;-1.59;100.00
57801;BME280;43627;42.728;23.256;2023-01-28T05:22:21;94520.16;;;-1.48;100.00
57801;BME280;43627;42.728;23.256;2023-01-28T05:24:48;94535.75;;;-1.43;100.00
57801;BME280;43627;42.728;23.256;2023-01-28T05:27:14;94542.25;;;-1.40;100.00
57801;BME280;43627;42.728;23.256;2023-01-28T05:29:41;94526.50;;;-1.35;100.00
57801;BME280;43627;42.728;23.256;2023-01-28T05:32:08;94532.63;;;-1.31;100.00
57801;BME280;43627;42.728;23.256;2023-01-28T05:34:35;94525.00;;;-1.36;100.00
57801;BME280;43627;42.728;23.256;2023-01-28T05:37:01;94533.69;;;-1.25;100.00
57801;BME280;43627;42.728;23.256;2023-01-28T05:39:28;94541.44;;;-1.37;100.00
57801;BME280;43627;42.728;23.256;2023-01-28T05:41:55;94542.59;;;-1.38;100.00
57801;BME280;43627;42.728;23.256;2023-01-28T05:44:22;94515.59;;;-1.51;100.00
57801;BME280;43627;42.728;23.256;2023-01-28T05:46:48;94550.19;;;-1.30;100.00
57801;BME280;43627;42.728;23.256;2023-01-28T05:49:15;94562.44;;;-1.36;100.00
57801;BME280;43627;42.728;23.256;2023-01-28T05:51:42;94525.16;;;-1.54;100.00
57801;BME280;43627;42.728;23.256;2023-01-28T05:54:09;94552.19;;;-1.41;100.00
57801;BME280;43627;42.728;23.256;2023-01-28T05:56:36;94539.25;;;-1.50;100.00
57801;BME280;43627;42.728;23.256;2023-01-28T05:59:03;94543.06;;;-1.47;100.00
57801;BME280;43627;42.728;23.256;2023-01-28T06:01:30;94546.44;;;-1.39;100.00
57801;BME280;43627;42.728;23.256;2023-01-28T06:03:57;94555.22;;;-1.39;100.00
57801;BME280;43627;42.728;23.256;2023-01-28T06:06:24;94569.31;;;-1.35;100.00
57801;BME280;43627;42.728;23.256;2023-01-28T06:08:51;94558.19;;;-1.30;100.00
57801;BME280;43627;42.728;23.256;2023-01-28T06:11:17;94571.53;;;-1.23;100.00
57801;BME280;43627;42.728;23.256;2023-01-28T06:13:45;94563.56;;;-1.33;100.00
57801;BME280;43627;42.728;23.256;2023-01-28T06:16:12;94577.28;;;-1.28;100.00
57801;BME280;43627;42.728;23.256;2023-01-28T06:18:38;94584.09;;;-1.20;100.00
57801;BME280;43627;42.728;23.256;2023-01-28T06:21:07;94564.63;;;-1.24;100.00
57801;BME280;43627;42.728;23.256;2023-01-28T06:23:33;94588.31;;;-1.22;100.00
57801;BME280;43627;42.728;23.256;2023-01-28T06:26:00;94597.44;;;-1.16;100.00
57801;BME280;43627;42.728;23.256;2023-01-28T06:28:27;94591.38;;;-1.24;100.00
57801;BME280;43627;42.728;23.256;2023-01-28T06:30:54;94599.38;;;-1.20;100.00
57801;BME280;43627;42.728;23.256;2023-01-28T06:33:20;94583.28;;;-1.13;100.00
57801;BME280;43627;42.728;23.256;2023-01-28T06:35:48;94610.81;;;-1.16;100.00
57801;BME280;43627;42.728;23.256;2023-01-28T06:38:14;94607.78;;;-1.18;100.00
57801;BME280;43627;42.728;23.256;2023-01-28T06:40:41;94607.72;;;-1.15;100.00
57801;BME280;43627;42.728;23.256;2023-01-28T06:43:07;94607.69;;;-1.07;100.00
57801;BME280;43627;42.728;23.256;2023-01-28T06:45:34;94618.00;;;-1.06;100.00
57801;BME280;43627;42.728;23.256;2023-01-28T06:48:01;94614.91;;;-1.04;100.00
57801;BME280;43627;42.728;23.256;2023-01-28T06:50:29;94628.38;;;-1.15;100.00
57801;BME280;43627;42.728;23.256;2023-01-28T06:52:56;94632.19;;;-1.12;100.00
57801;BME280;43627;42.728;23.256;2023-01-28T06:55:22;94618.91;;;-1.27;100.00
57801;BME280;43627;42.728;23.256;2023-01-28T06:57:49;94636.09;;;-1.21;100.00
57801;BME280;43627;42.728;23.256;2023-01-28T07:00:16;94602.97;;;-1.37;100.00
57801;BME280;43627;42.728;23.256;2023-01-28T07:02:44;94641.00;;;-1.12;100.00
57801;BME280;43627;42.728;23.256;2023-01-28T07:05:10;94646.25;;;-1.05;100.00
57801;BME280;43627;42.728;23.256;2023-01-28T07:07:37;94648.56;;;-1.03;100.00
57801;BME280;43627;42.728;23.256;2023-01-28T07:10:07;94641.72;;;-1.08;100.00
57801;BME280;43627;42.728;23.256;2023-01-28T07:12:34;94638.31;;;-1.12;100.00
57801;BME280;43627;42.728;23.256;2023-01-28T07:15:01;94643.28;;;-1.14;100.00
57801;BME280;43627;42.728;23.256;2023-01-28T07:17:27;94665.75;;;-1.04;100.00
57801;BME280;43627;42.728;23.256;2023-01-28T07:19:54;94653.88;;;-1.00;100.00
57801;BME280;43627;42.728;23.256;2023-01-28T07:22:21;94664.13;;;-0.91;100.00
57801;BME280;43627;42.728;23.256;2023-01-28T07:24:47;94652.22;;;-0.87;100.00
57801;BME280;43627;42.728;23.256;2023-01-28T07:27:14;94663.75;;;-0.90;100.00
57801;BME280;43627;42.728;23.256;2023-01-28T07:29:41;94667.56;;;-0.91;100.00
57801;BME280;43627;42.728;23.256;2023-01-28T07:32:07;94677.47;;;-0.88;100.00
57801;BME280;43627;42.728;23.256;2023-01-28T07:34:34;94677.81;;;-0.82;100.00
57801;BME280;43627;42.728;23.256;2023-01-28T07:37:05;94677.03;;;-0.79;100.00
57801;BME280;43627;42.728;23.256;2023-01-28T07:39:32;94674.69;;;-0.73;100.00
57801;BME280;43627;42.728;23.256;2023-01-28T07:42:00;94684.06;;;-0.51;100.00
57801;BME280;43627;42.728;23.256;2023-01-28T07:44:27;94658.59;;;-0.70;100.00
57801;BME280;43627;42.728;23.256;2023-01-28T07:46:53;94690.22;;;-0.58;100.00
57801;BME280;43627;42.728;23.256;2023-01-28T07:49:20;94693.19;;;-0.48;100.00
57801;BME280;43627;42.728;23.256;2023-01-28T07:51:47;94689.16;;;-0.67;100.00
57801;BME280;43627;42.728;23.256;2023-01-28T07:54:16;94684.94;;;-0.65;100.00
57801;BME280;43627;42.728;23.256;2023-01-28T07:56:43;94683.34;;;-0.59;100.00
57801;BME280;43627;42.728;23.256;2023-01-28T07:59:09;94680.25;;;-0.53;100.00
57801;BME280;43627;42.728;23.256;2023-01-28T08:01:36;94704.97;;;-0.39;100.00
57801;BME280;43627;42.728;23.256;2023-01-28T08:04:03;94668.13;;;-0.65;100.00
57801;BME280;43627;42.728;23.256;2023-01-28T08:06:29;94704.16;;;-0.32;100.00
57801;BME280;43627;42.728;23.256;2023-01-28T08:08:56;94695.47;;;-0.43;100.00
57801;BME280;43627;42.728;23.256;2023-01-28T08:11:23;94699.81;;;-0.56;100.00
57801;BME280;43627;42.728;23.256;2023-01-28T08:13:50;94697.28;;;-0.33;100.00
57801;BME280;43627;42.728;23.256;2023-01-28T08:16:16;94721.44;;;-0.40;100.00
57801;BME280;43627;42.728;23.256;2023-01-28T08:18:43;94720.19;;;-0.29;100.00
57801;BME280;43627;42.728;23.256;2023-01-28T08:21:09;94697.34;;;-0.40;100.00
57801;BME280;43627;42.728;23.256;2023-01-28T08:23:36;94726.25;;;-0.21;100.00
57801;BME280;43627;42.728;23.256;2023-01-28T08:26:04;94720.16;;;-0.25;100.00
57801;BME280;43627;42.728;23.256;2023-01-28T08:28:31;94699.25;;;-0.37;100.00
57801;BME280;43627;42.728;23.256;2023-01-28T08:31:01;94723.09;;;-0.12;100.00
57801;BME280;43627;42.728;23.256;2023-01-28T08:33:28;94713.19;;;-0.15;100.00
57801;BME280;43627;42.728;23.256;2023-01-28T08:35:55;94727.59;;;-0.02;100.00
57801;BME280;43627;42.728;23.256;2023-01-28T08:38:22;94701.06;;;0.07;100.00
57801;BME280;43627;42.728;23.256;2023-01-28T08:40:49;94713.13;;;-0.08;100.00
57801;BME280;43627;42.728;23.256;2023-01-28T08:43:22;94729.84;;;0.03;100.00
57801;BME280;43627;42.728;23.256;2023-01-28T08:45:48;94732.53;;;-0.01;100.00
57801;BME280;43627;42.728;23.256;2023-01-28T08:48:17;94721.47;;;-0.03;100.00
57801;BME280;43627;42.728;23.256;2023-01-28T08:50:44;94725.75;;;-0.09;100.00
57801;BME280;43627;42.728;23.256;2023-01-28T08:53:13;94737.47;;;0.05;100.00
57801;BME280;43627;42.728;23.256;2023-01-28T08:55:40;94739.63;;;0.17;100.00
57801;BME280;43627;42.728;23.256;2023-01-28T08:58:13;94710.00;;;-0.03;100.00
57801;BME280;43627;42.728;23.256;2023-01-28T09:00:40;94744.50;;;0.29;100.00
57801;BME280;43627;42.728;23.256;2023-01-28T09:03:07;94730.19;;;0.05;100.00
57801;BME280;43627;42.728;23.256;2023-01-28T09:05:34;94735.38;;;0.23;100.00
57801;BME280;43627;42.728;23.256;2023-01-28T09:08:09;94744.22;;;0.20;100.00
57801;BME280;43627;42.728;23.256;2023-01-28T09:10:36;94746.63;;;0.07;100.00
57801;BME280;43627;42.728;23.256;2023-01-28T09:13:08;94741.38;;;0.34;100.00
57801;BME280;43627;42.728;23.256;2023-01-28T09:15:35;94747.66;;;0.20;100.00
57801;BME280;43627;42.728;23.256;2023-01-28T09:18:03;94718.44;;;-0.05;100.00
57801;BME280;43627;42.728;23.256;2023-01-28T09:20:30;94713.28;;;0.12;100.00
57801;BME280;43627;42.728;23.256;2023-01-28T09:23:01;94731.53;;;0.24;100.00
57801;BME280;43627;42.728;23.256;2023-01-28T09:25:28;94742.13;;;0.35;100.00
57801;BME280;43627;42.728;23.256;2023-01-28T09:27:56;94749.63;;;0.47;100.00
57801;BME280;43627;42.728;23.256;2023-01-28T09:30:23;94634.63;;;-0.09;100.00
57801;BME280;43627;42.728;23.256;2023-01-28T09:32:51;94736.97;;;0.47;100.00
57801;BME280;43627;42.728;23.256;2023-01-28T09:35:18;94730.34;;;0.28;100.00
57801;BME280;43627;42.728;23.256;2023-01-28T09:37:45;94733.69;;;0.36;100.00
57801;BME280;43627;42.728;23.256;2023-01-28T09:40:32;94735.47;;;0.46;100.00
57801;BME280;43627;42.728;23.256;2023-01-28T09:43:27;94742.94;;;0.62;100.00
57801;BME280;43627;42.728;23.256;2023-01-28T09:46:02;94726.97;;;0.21;100.00
57801;BME280;43627;42.728;23.256;2023-01-28T09:48:45;94732.22;;;0.28;100.00
57801;BME280;43627;42.728;23.256;2023-01-28T09:51:44;94737.31;;;0.19;100.00
57801;BME280;43627;42.728;23.256;2023-01-28T09:54:29;94731.88;;;0.26;100.00
57801;BME280;43627;42.728;23.256;2023-01-28T09:57:03;94726.34;;;0.10;100.00
57801;BME280;43627;42.728;23.256;2023-01-28T09:59:33;94731.94;;;0.19;100.00
57801;BME280;43627;42.728;23.256;2023-01-28T10:02:20;94738.72;;;-0.04;100.00
57801;BME280;43627;42.728;23.256;2023-01-28T10:04:58;94731.03;;;-0.02;100.00
57801;BME280;43627;42.728;23.256;2023-01-28T10:07:42;94729.03;;;0.06;100.00
57801;BME280;43627;42.728;23.256;2023-01-28T10:10:19;94707.63;;;0.03;100.00
57801;BME280;43627;42.728;23.256;2023-01-28T10:13:03;94717.84;;;0.15;100.00
57801;BME280;43627;42.728;23.256;2023-01-28T10:15:50;94699.75;;;0.22;100.00
57801;BME280;43627;42.728;23.256;2023-01-28T10:18:33;94665.91;;;0.02;100.00
57801;BME280;43627;42.728;23.256;2023-01-28T10:21:09;94657.41;;;0.10;100.00
57801;BME280;43627;42.728;23.256;2023-01-28T10:23:58;94692.38;;;0.61;100.00
57801;BME280;43627;42.728;23.256;2023-01-28T10:26:32;94672.88;;;0.56;100.00
57801;BME280;43627;42.728;23.256;2023-01-28T10:29:08;94730.94;;;1.01;100.00
57801;BME280;43627;42.728;23.256;2023-01-28T10:31:58;94740.38;;;0.82;100.00
57801;BME280;43627;42.728;23.256;2023-01-28T10:34:28;94611.44;;;-0.22;100.00
57801;BME280;43627;42.728;23.256;2023-01-28T10:36:56;94709.31;;;0.54;100.00
57801;BME280;43627;42.728;23.256;2023-01-28T10:39:24;94724.34;;;0.48;100.00
57801;BME280;43627;42.728;23.256;2023-01-28T10:41:51;94720.53;;;0.45;100.00
57801;BME280;43627;42.728;23.256;2023-01-28T10:44:26;94707.97;;;0.69;100.00
57801;BME280;43627;42.728;23.256;2023-01-28T10:46:58;94716.44;;;0.68;100.00
57801;BME280;43627;42.728;23.256;2023-01-28T10:49:29;94733.78;;;0.60;100.00
57801;BME280;43627;42.728;23.256;2023-01-28T10:51:56;94717.56;;;0.40;100.00
57801;BME280;43627;42.728;23.256;2023-01-28T10:54:27;94730.34;;;0.59;100.00
57801;BME280;43627;42.728;23.256;2023-01-28T10:56:58;94722.59;;;0.65;100.00
57801;BME280;43627;42.728;23.256;2023-01-28T10:59:28;94738.41;;;0.55;100.00
57801;BME280;43627;42.728;23.256;2023-01-28T11:01:58;94734.50;;;0.64;100.00
57801;BME280;43627;42.728;23.256;2023-01-28T11:04:31;94708.41;;;0.64;100.00
57801;BME280;43627;42.728;23.256;2023-01-28T11:07:13;94712.34;;;0.56;100.00
57801;BME280;43627;42.728;23.256;2023-01-28T11:09:45;94725.00;;;0.55;100.00
57801;BME280;43627;42.728;23.256;2023-01-28T11:12:20;94714.47;;;0.72;100.00
57801;BME280;43627;42.728;23.256;2023-01-28T11:15:05;94714.38;;;0.79;100.00
57801;BME280;43627;42.728;23.256;2023-01-28T11:17:34;94721.31;;;0.76;100.00
57801;BME280;43627;42.728;23.256;2023-01-28T11:20:17;94723.63;;;1.01;100.00
57801;BME280;43627;42.728;23.256;2023-01-28T11:22:45;94705.31;;;0.96;100.00
57801;BME280;43627;42.728;23.256;2023-01-28T11:25:42;94715.00;;;1.13;100.00
57801;BME280;43627;42.728;23.256;2023-01-28T11:28:17;94722.06;;;1.04;100.00
57801;BME280;43627;42.728;23.256;2023-01-28T11:30:50;94725.97;;;0.99;100.00
57801;BME280;43627;42.728;23.256;2023-01-28T11:33:24;94713.63;;;1.05;100.00
57801;BME280;43627;42.728;23.256;2023-01-28T11:35:56;94694.31;;;0.87;100.00
57801;BME280;43627;42.728;23.256;2023-01-28T11:38:24;94720.50;;;1.06;100.00
57801;BME280;43627;42.728;23.256;2023-01-28T11:40:53;94705.09;;;1.10;100.00
57801;BME280;43627;42.728;23.256;2023-01-28T11:43:22;94702.88;;;1.05;100.00
57801;BME280;43627;42.728;23.256;2023-01-28T12:00:40;94714.94;;;1.44;100.00
57801;BME280;43627;42.728;23.256;2023-01-28T12:09:45;94605.69;;;0.10;100.00
57801;BME280;43627;42.728;23.256;2023-01-28T12:18:14;94696.94;;;0.91;100.00
57801;BME280;43627;42.728;23.256;2023-01-28T12:21:03;94677.22;;;0.77;100.00
57801;BME280;43627;42.728;23.256;2023-01-28T12:32:12;94679.59;;;0.41;100.00
57801;BME280;43627;42.728;23.256;2023-01-28T12:37:53;94715.00;;;0.60;100.00
57801;BME280;43627;42.728;23.256;2023-01-28T12:40:48;94705.47;;;0.55;100.00
57801;BME280;43627;42.728;23.256;2023-01-28T12:43:43;94700.50;;;0.53;100.00
57801;BME280;43627;42.728;23.256;2023-01-28T12:49:17;94721.34;;;0.42;100.00
57801;BME280;43627;42.728;23.256;2023-01-28T12:54:40;94727.59;;;0.63;100.00
57801;BME280;43627;42.728;23.256;2023-01-28T12:57:25;94739.25;;;0.52;100.00
57801;BME280;43627;42.728;23.256;2023-01-28T13:02:54;94733.16;;;1.06;100.00
57801;BME280;43627;42.728;23.256;2023-01-28T13:05:30;94758.88;;;1.03;100.00
57801;BME280;43627;42.728;23.256;2023-01-28T13:08:08;94709.94;;;0.92;100.00
57801;BME280;43627;42.728;23.256;2023-01-28T13:10:44;94747.38;;;1.03;100.00
57801;BME280;43627;42.728;23.256;2023-01-28T13:13:32;94750.19;;;0.96;100.00
57801;BME280;43627;42.728;23.256;2023-01-28T13:16:00;94710.81;;;0.59;100.00
57801;BME280;43627;42.728;23.256;2023-01-28T13:23:48;94750.19;;;0.96;100.00
57801;BME280;43627;42.728;23.256;2023-01-28T13:28:46;94748.16;;;0.76;100.00
57801;BME280;43627;42.728;23.256;2023-01-28T13:31:16;94754.22;;;0.50;100.00
57801;BME280;43627;42.728;23.256;2023-01-28T13:36:26;94775.22;;;0.55;100.00
57801;BME280;43627;42.728;23.256;2023-01-28T13:39:04;94778.72;;;0.52;100.00
57801;BME280;43627;42.728;23.256;2023-01-28T13:46:56;94731.88;;;-0.08;100.00
57801;BME280;43627;42.728;23.256;2023-01-28T13:49:38;94782.34;;;0.35;100.00
57801;BME280;43627;42.728;23.256;2023-01-28T13:52:19;94753.34;;;0.26;100.00
57801;BME280;43627;42.728;23.256;2023-01-28T13:55:02;94778.44;;;0.43;100.00
57801;BME280;43627;42.728;23.256;2023-01-28T14:08:29;94795.34;;;-0.02;100.00
57801;BME280;43627;42.728;23.256;2023-01-28T14:14:19;94792.47;;;-0.18;100.00
57801;BME280;43627;42.728;23.256;2023-01-28T14:17:03;94739.59;;;-0.59;100.00
57801;BME280;43627;42.728;23.256;2023-01-28T14:19:36;94754.84;;;-0.52;100.00
57801;BME280;43627;42.728;23.256;2023-01-28T14:22:08;94808.91;;;-0.19;100.00
57801;BME280;43627;42.728;23.256;2023-01-28T14:24:38;94751.41;;;-0.52;100.00
57801;BME280;43627;42.728;23.256;2023-01-28T14:27:31;94816.63;;;-0.25;100.00
57801;BME280;43627;42.728;23.256;2023-01-28T14:30:23;94809.00;;;-0.30;100.00
57801;BME280;43627;42.728;23.256;2023-01-28T14:32:51;94808.78;;;-0.50;100.00
57801;BME280;43627;42.728;23.256;2023-01-28T14:35:30;94822.88;;;-0.42;100.00
57801;BME280;43627;42.728;23.256;2023-01-28T14:37:59;94827.88;;;-0.44;100.00
57801;BME280;43627;42.728;23.256;2023-01-28T14:40:27;94811.31;;;-0.32;100.00
57801;BME280;43627;42.728;23.256;2023-01-28T14:42:56;94822.41;;;-0.30;100.00
57801;BME280;43627;42.728;23.256;2023-01-28T14:45:50;94830.09;;;-0.36;100.00
57801;BME280;43627;42.728;23.256;2023-01-28T14:48:23;94830.16;;;-0.43;100.00